Versailles, Ohio
Current Conditions -  °F | °C
As of 8:55 PM on Monday 24 Nov 2014 (Local Time) from KVES Reporting Station
Overcast Overcast  
Wind Chill: 26°   Ceiling: 4400
Heat Index: 36°   Visibility: 10mi
Dew Point: 32°   Wind: 16mph
Humidity: 87%   Direction: 240°WSW
Pressure: 29.81"   Gusts: 26mph
Location:  40.22°N, 84.48°W
Report Text: KVES 250155Z AUTO 24014G23KT 10SM SCT032 SCT037 OVC044 02/00 A2981 RMK AO2
Loading
Personal Weather Stations






























Interactive Weather Map New forecast layout! Learn more

10-Day Weather Forecast

Advertisements
Track Severe Weather on mobile